sensor_id;sensor_type;location;lat;lon;timestamp;P1;durP1;ratioP1;P2;durP2;ratioP2
44214;SDS011;29884;47.450;19.124;2022-08-27T00:00:11;12.65;;;7.25;;
44214;SDS011;29884;47.450;19.124;2022-08-27T00:02:43;11.75;;;7.80;;
44214;SDS011;29884;47.450;19.124;2022-08-27T00:05:10;8.63;;;7.18;;
44214;SDS011;29884;47.450;19.124;2022-08-27T00:07:37;10.65;;;8.63;;
44214;SDS011;29884;47.450;19.124;2022-08-27T00:10:05;10.05;;;7.45;;
44214;SDS011;29884;47.450;19.124;2022-08-27T00:12:32;11.52;;;8.18;;
44214;SDS011;29884;47.450;19.124;2022-08-27T00:14:59;13.90;;;8.52;;
44214;SDS011;29884;47.450;19.124;2022-08-27T00:17:25;12.23;;;7.57;;
44214;SDS011;29884;47.450;19.124;2022-08-27T00:19:51;8.80;;;7.40;;
44214;SDS011;29884;47.450;19.124;2022-08-27T00:22:17;10.18;;;7.40;;
44214;SDS011;29884;47.450;19.124;2022-08-27T00:24:43;8.48;;;7.63;;
44214;SDS011;29884;47.450;19.124;2022-08-27T00:27:08;12.43;;;8.15;;
44214;SDS011;29884;47.450;19.124;2022-08-27T00:29:34;14.32;;;8.23;;
44214;SDS011;29884;47.450;19.124;2022-08-27T00:32:00;10.05;;;8.52;;
44214;SDS011;29884;47.450;19.124;2022-08-27T00:34:26;11.40;;;8.32;;
44214;SDS011;29884;47.450;19.124;2022-08-27T00:36:52;10.95;;;8.18;;
44214;SDS011;29884;47.450;19.124;2022-08-27T00:39:18;11.13;;;8.43;;
44214;SDS011;29884;47.450;19.124;2022-08-27T00:41:44;9.15;;;7.85;;
44214;SDS011;29884;47.450;19.124;2022-08-27T00:44:10;9.55;;;8.60;;
44214;SDS011;29884;47.450;19.124;2022-08-27T00:49:07;10.30;;;9.45;;
44214;SDS011;29884;47.450;19.124;2022-08-27T00:51:56;9.57;;;8.60;;
44214;SDS011;29884;47.450;19.124;2022-08-27T00:54:30;9.65;;;8.73;;
44214;SDS011;29884;47.450;19.124;2022-08-27T00:56:57;11.20;;;10.10;;
44214;SDS011;29884;47.450;19.124;2022-08-27T00:59:25;11.65;;;9.18;;
44214;SDS011;29884;47.450;19.124;2022-08-27T01:01:57;14.83;;;10.13;;
44214;SDS011;29884;47.450;19.124;2022-08-27T01:04:51;9.80;;;8.88;;
44214;SDS011;29884;47.450;19.124;2022-08-27T01:07:23;10.68;;;9.85;;
44214;SDS011;29884;47.450;19.124;2022-08-27T01:09:52;12.15;;;9.98;;
44214;SDS011;29884;47.450;19.124;2022-08-27T01:12:20;14.35;;;8.93;;
44214;SDS011;29884;47.450;19.124;2022-08-27T01:14:46;11.38;;;9.52;;
44214;SDS011;29884;47.450;19.124;2022-08-27T01:17:12;10.70;;;9.13;;
44214;SDS011;29884;47.450;19.124;2022-08-27T01:19:42;11.10;;;9.38;;
44214;SDS011;29884;47.450;19.124;2022-08-27T01:24:59;10.68;;;9.27;;
44214;SDS011;29884;47.450;19.124;2022-08-27T01:27:30;12.20;;;9.70;;
44214;SDS011;29884;47.450;19.124;2022-08-27T01:29:56;9.80;;;8.93;;
44214;SDS011;29884;47.450;19.124;2022-08-27T01:32:24;11.63;;;10.57;;
44214;SDS011;29884;47.450;19.124;2022-08-27T01:34:54;11.43;;;10.32;;
44214;SDS011;29884;47.450;19.124;2022-08-27T01:37:22;11.68;;;10.63;;
44214;SDS011;29884;47.450;19.124;2022-08-27T01:39:49;13.00;;;10.15;;
44214;SDS011;29884;47.450;19.124;2022-08-27T01:42:16;13.23;;;9.85;;
44214;SDS011;29884;47.450;19.124;2022-08-27T01:45:17;11.13;;;10.15;;
44214;SDS011;29884;47.450;19.124;2022-08-27T01:47:45;11.27;;;10.30;;
44214;SDS011;29884;47.450;19.124;2022-08-27T01:50:14;11.68;;;10.68;;
44214;SDS011;29884;47.450;19.124;2022-08-27T01:52:45;10.68;;;9.40;;
44214;SDS011;29884;47.450;19.124;2022-08-27T01:55:12;10.15;;;9.13;;
44214;SDS011;29884;47.450;19.124;2022-08-27T01:57:40;14.20;;;9.60;;
44214;SDS011;29884;47.450;19.124;2022-08-27T02:00:18;11.88;;;10.68;;
44214;SDS011;29884;47.450;19.124;2022-08-27T02:02:47;12.27;;;9.52;;
44214;SDS011;29884;47.450;19.124;2022-08-27T02:05:14;11.05;;;10.00;;
44214;SDS011;29884;47.450;19.124;2022-08-27T02:07:40;9.95;;;9.05;;
44214;SDS011;29884;47.450;19.124;2022-08-27T02:10:08;10.20;;;9.15;;
44214;SDS011;29884;47.450;19.124;2022-08-27T02:12:35;10.68;;;9.02;;
44214;SDS011;29884;47.450;19.124;2022-08-27T02:15:01;10.30;;;9.35;;
44214;SDS011;29884;47.450;19.124;2022-08-27T02:17:28;11.95;;;9.20;;
44214;SDS011;29884;47.450;19.124;2022-08-27T02:19:54;16.00;;;9.68;;
44214;SDS011;29884;47.450;19.124;2022-08-27T02:22:20;10.27;;;8.60;;
44214;SDS011;29884;47.450;19.124;2022-08-27T02:24:47;8.77;;;7.90;;
44214;SDS011;29884;47.450;19.124;2022-08-27T02:27:12;10.50;;;8.98;;
44214;SDS011;29884;47.450;19.124;2022-08-27T02:29:38;10.35;;;8.63;;
44214;SDS011;29884;47.450;19.124;2022-08-27T02:32:04;10.68;;;9.27;;
44214;SDS011;29884;47.450;19.124;2022-08-27T02:34:30;14.80;;;10.30;;
44214;SDS011;29884;47.450;19.124;2022-08-27T02:36:55;12.30;;;10.15;;
44214;SDS011;29884;47.450;19.124;2022-08-27T02:39:21;11.05;;;9.95;;
44214;SDS011;29884;47.450;19.124;2022-08-27T02:41:47;10.48;;;9.52;;
44214;SDS011;29884;47.450;19.124;2022-08-27T02:44:13;13.07;;;11.98;;
44214;SDS011;29884;47.450;19.124;2022-08-27T02:46:39;12.60;;;11.00;;
44214;SDS011;29884;47.450;19.124;2022-08-27T02:49:05;12.23;;;11.13;;
44214;SDS011;29884;47.450;19.124;2022-08-27T02:51:33;10.73;;;9.70;;
44214;SDS011;29884;47.450;19.124;2022-08-27T02:53:59;14.27;;;10.93;;
44214;SDS011;29884;47.450;19.124;2022-08-27T02:56:26;16.02;;;11.98;;
44214;SDS011;29884;47.450;19.124;2022-08-27T02:58:52;11.52;;;10.40;;
44214;SDS011;29884;47.450;19.124;2022-08-27T03:01:18;10.82;;;9.85;;
44214;SDS011;29884;47.450;19.124;2022-08-27T03:03:44;12.02;;;10.93;;
44214;SDS011;29884;47.450;19.124;2022-08-27T03:06:10;12.55;;;11.30;;
44214;SDS011;29884;47.450;19.124;2022-08-27T03:08:36;11.50;;;10.23;;
44214;SDS011;29884;47.450;19.124;2022-08-27T03:11:02;14.13;;;10.43;;
44214;SDS011;29884;47.450;19.124;2022-08-27T03:13:28;11.95;;;10.85;;
44214;SDS011;29884;47.450;19.124;2022-08-27T03:15:53;11.27;;;10.13;;
44214;SDS011;29884;47.450;19.124;2022-08-27T03:18:19;15.27;;;11.52;;
44214;SDS011;29884;47.450;19.124;2022-08-27T03:20:49;11.68;;;10.57;;
44214;SDS011;29884;47.450;19.124;2022-08-27T03:23:17;11.38;;;10.35;;
44214;SDS011;29884;47.450;19.124;2022-08-27T03:25:56;10.63;;;9.57;;
44214;SDS011;29884;47.450;19.124;2022-08-27T03:28:24;10.63;;;8.98;;
44214;SDS011;29884;47.450;19.124;2022-08-27T03:30:53;12.52;;;11.30;;
44214;SDS011;29884;47.450;19.124;2022-08-27T03:33:23;10.48;;;9.45;;
44214;SDS011;29884;47.450;19.124;2022-08-27T03:35:49;11.38;;;10.48;;
44214;SDS011;29884;47.450;19.124;2022-08-27T03:38:15;14.95;;;10.38;;
44214;SDS011;29884;47.450;19.124;2022-08-27T03:40:41;11.52;;;10.38;;
44214;SDS011;29884;47.450;19.124;2022-08-27T03:43:08;12.18;;;10.90;;
44214;SDS011;29884;47.450;19.124;2022-08-27T03:45:37;11.95;;;11.05;;
44214;SDS011;29884;47.450;19.124;2022-08-27T03:48:03;11.32;;;10.32;;
44214;SDS011;29884;47.450;19.124;2022-08-27T03:50:30;11.27;;;10.40;;
44214;SDS011;29884;47.450;19.124;2022-08-27T03:52:57;11.73;;;10.32;;
44214;SDS011;29884;47.450;19.124;2022-08-27T03:55:23;11.13;;;10.23;;
44214;SDS011;29884;47.450;19.124;2022-08-27T03:57:49;9.52;;;8.73;;
44214;SDS011;29884;47.450;19.124;2022-08-27T04:00:15;10.32;;;9.50;;
44214;SDS011;29884;47.450;19.124;2022-08-27T04:02:41;10.18;;;9.38;;
44214;SDS011;29884;47.450;19.124;2022-08-27T04:05:11;11.07;;;10.07;;
44214;SDS011;29884;47.450;19.124;2022-08-27T04:07:39;11.00;;;9.93;;
44214;SDS011;29884;47.450;19.124;2022-08-27T04:10:06;10.57;;;9.68;;
44214;SDS011;29884;47.450;19.124;2022-08-27T04:12:33;10.82;;;9.70;;
44214;SDS011;29884;47.450;19.124;2022-08-27T04:15:00;10.40;;;9.48;;
44214;SDS011;29884;47.450;19.124;2022-08-27T04:17:25;12.52;;;9.48;;
44214;SDS011;29884;47.450;19.124;2022-08-27T04:19:52;10.38;;;9.35;;
44214;SDS011;29884;47.450;19.124;2022-08-27T04:22:18;9.65;;;8.70;;
44214;SDS011;29884;47.450;19.124;2022-08-27T04:24:44;10.35;;;9.35;;
44214;SDS011;29884;47.450;19.124;2022-08-27T04:27:11;10.85;;;9.85;;
44214;SDS011;29884;47.450;19.124;2022-08-27T04:29:39;14.77;;;8.68;;
44214;SDS011;29884;47.450;19.124;2022-08-27T04:32:04;9.50;;;8.27;;
44214;SDS011;29884;47.450;19.124;2022-08-27T04:34:30;10.13;;;9.00;;
44214;SDS011;29884;47.450;19.124;2022-08-27T04:36:57;9.63;;;8.45;;
44214;SDS011;29884;47.450;19.124;2022-08-27T04:39:24;9.25;;;8.55;;
44214;SDS011;29884;47.450;19.124;2022-08-27T04:41:51;10.55;;;9.35;;
44214;SDS011;29884;47.450;19.124;2022-08-27T04:44:19;11.23;;;10.02;;
44214;SDS011;29884;47.450;19.124;2022-08-27T04:46:46;10.90;;;9.95;;
44214;SDS011;29884;47.450;19.124;2022-08-27T04:49:15;9.93;;;8.93;;
44214;SDS011;29884;47.450;19.124;2022-08-27T04:51:41;11.98;;;9.32;;
44214;SDS011;29884;47.450;19.124;2022-08-27T04:54:07;8.82;;;7.93;;
44214;SDS011;29884;47.450;19.124;2022-08-27T04:56:34;9.85;;;8.65;;
44214;SDS011;29884;47.450;19.124;2022-08-27T04:59:02;10.38;;;9.15;;
44214;SDS011;29884;47.450;19.124;2022-08-27T05:01:29;7.88;;;7.18;;
44214;SDS011;29884;47.450;19.124;2022-08-27T05:03:55;10.07;;;9.07;;
44214;SDS011;29884;47.450;19.124;2022-08-27T05:06:22;9.43;;;8.40;;
44214;SDS011;29884;47.450;19.124;2022-08-27T05:08:49;12.38;;;8.13;;
44214;SDS011;29884;47.450;19.124;2022-08-27T05:11:16;10.68;;;7.85;;
44214;SDS011;29884;47.450;19.124;2022-08-27T05:13:45;10.23;;;8.27;;
44214;SDS011;29884;47.450;19.124;2022-08-27T05:16:12;8.93;;;8.07;;
44214;SDS011;29884;47.450;19.124;2022-08-27T05:18:43;12.02;;;7.28;;
44214;SDS011;29884;47.450;19.124;2022-08-27T05:21:14;9.65;;;7.65;;
44214;SDS011;29884;47.450;19.124;2022-08-27T05:23:44;7.53;;;6.82;;
44214;SDS011;29884;47.450;19.124;2022-08-27T05:26:11;11.93;;;7.30;;
44214;SDS011;29884;47.450;19.124;2022-08-27T05:28:37;8.00;;;7.25;;
44214;SDS011;29884;47.450;19.124;2022-08-27T05:31:04;9.95;;;6.57;;
44214;SDS011;29884;47.450;19.124;2022-08-27T05:33:32;7.95;;;6.80;;
44214;SDS011;29884;47.450;19.124;2022-08-27T05:35:59;9.48;;;6.82;;
44214;SDS011;29884;47.450;19.124;2022-08-27T05:38:26;8.70;;;6.20;;
44214;SDS011;29884;47.450;19.124;2022-08-27T05:41:06;14.15;;;6.85;;
44214;SDS011;29884;47.450;19.124;2022-08-27T05:43:35;10.48;;;6.25;;
44214;SDS011;29884;47.450;19.124;2022-08-27T05:46:03;13.80;;;6.82;;
44214;SDS011;29884;47.450;19.124;2022-08-27T05:48:30;8.60;;;7.05;;
44214;SDS011;29884;47.450;19.124;2022-08-27T05:51:05;7.63;;;6.82;;
44214;SDS011;29884;47.450;19.124;2022-08-27T05:53:35;10.55;;;6.28;;
44214;SDS011;29884;47.450;19.124;2022-08-27T05:56:01;10.10;;;6.13;;
44214;SDS011;29884;47.450;19.124;2022-08-27T05:58:27;7.22;;;6.10;;
44214;SDS011;29884;47.450;19.124;2022-08-27T06:01:11;9.13;;;6.32;;
44214;SDS011;29884;47.450;19.124;2022-08-27T06:03:37;8.98;;;6.47;;
44214;SDS011;29884;47.450;19.124;2022-08-27T06:06:06;9.10;;;6.72;;
44214;SDS011;29884;47.450;19.124;2022-08-27T06:08:34;9.50;;;5.70;;
44214;SDS011;29884;47.450;19.124;2022-08-27T06:11:00;7.85;;;5.78;;
44214;SDS011;29884;47.450;19.124;2022-08-27T06:13:28;6.57;;;5.63;;
44214;SDS011;29884;47.450;19.124;2022-08-27T06:16:04;8.20;;;6.30;;
44214;SDS011;29884;47.450;19.124;2022-08-27T06:18:32;10.10;;;6.25;;
44214;SDS011;29884;47.450;19.124;2022-08-27T06:20:58;8.48;;;6.00;;
44214;SDS011;29884;47.450;19.124;2022-08-27T06:23:25;7.85;;;5.80;;
44214;SDS011;29884;47.450;19.124;2022-08-27T06:25:51;8.27;;;6.10;;
44214;SDS011;29884;47.450;19.124;2022-08-27T06:28:20;6.93;;;6.03;;
44214;SDS011;29884;47.450;19.124;2022-08-27T06:30:47;8.07;;;5.70;;
44214;SDS011;29884;47.450;19.124;2022-08-27T06:33:13;7.60;;;4.90;;
44214;SDS011;29884;47.450;19.124;2022-08-27T06:35:39;7.57;;;5.82;;
44214;SDS011;29884;47.450;19.124;2022-08-27T06:38:05;13.93;;;5.60;;
44214;SDS011;29884;47.450;19.124;2022-08-27T06:40:31;6.25;;;5.30;;
44214;SDS011;29884;47.450;19.124;2022-08-27T06:42:57;10.45;;;5.43;;
44214;SDS011;29884;47.450;19.124;2022-08-27T06:45:24;7.25;;;4.80;;
44214;SDS011;29884;47.450;19.124;2022-08-27T06:47:50;6.32;;;5.75;;
44214;SDS011;29884;47.450;19.124;2022-08-27T06:50:15;6.13;;;4.93;;
44214;SDS011;29884;47.450;19.124;2022-08-27T06:52:41;7.50;;;4.68;;
44214;SDS011;29884;47.450;19.124;2022-08-27T06:55:07;5.03;;;4.72;;
44214;SDS011;29884;47.450;19.124;2022-08-27T06:57:35;7.50;;;4.93;;
44214;SDS011;29884;47.450;19.124;2022-08-27T07:00:01;6.63;;;5.15;;
44214;SDS011;29884;47.450;19.124;2022-08-27T07:02:28;6.65;;;4.20;;
44214;SDS011;29884;47.450;19.124;2022-08-27T07:04:55;7.85;;;4.68;;
44214;SDS011;29884;47.450;19.124;2022-08-27T07:07:21;8.32;;;5.20;;
44214;SDS011;29884;47.450;19.124;2022-08-27T07:09:47;8.50;;;5.05;;
44214;SDS011;29884;47.450;19.124;2022-08-27T07:12:12;12.18;;;4.95;;
44214;SDS011;29884;47.450;19.124;2022-08-27T07:14:39;11.32;;;4.30;;
44214;SDS011;29884;47.450;19.124;2022-08-27T07:17:05;6.45;;;3.90;;
44214;SDS011;29884;47.450;19.124;2022-08-27T07:19:35;12.77;;;4.07;;
44214;SDS011;29884;47.450;19.124;2022-08-27T07:22:02;4.38;;;3.67;;
44214;SDS011;29884;47.450;19.124;2022-08-27T07:24:28;4.45;;;3.60;;
44214;SDS011;29884;47.450;19.124;2022-08-27T07:26:54;8.13;;;4.35;;
44214;SDS011;29884;47.450;19.124;2022-08-27T07:29:20;5.05;;;3.13;;
44214;SDS011;29884;47.450;19.124;2022-08-27T07:31:45;5.30;;;2.85;;
44214;SDS011;29884;47.450;19.124;2022-08-27T07:34:11;7.13;;;5.50;;
44214;SDS011;29884;47.450;19.124;2022-08-27T07:36:37;6.18;;;3.25;;
44214;SDS011;29884;47.450;19.124;2022-08-27T07:39:05;4.22;;;3.30;;
44214;SDS011;29884;47.450;19.124;2022-08-27T07:41:32;6.05;;;3.25;;
44214;SDS011;29884;47.450;19.124;2022-08-27T07:44:18;6.72;;;3.20;;
44214;SDS011;29884;47.450;19.124;2022-08-27T07:46:51;5.47;;;3.35;;
44214;SDS011;29884;47.450;19.124;2022-08-27T07:49:18;5.05;;;2.65;;
44214;SDS011;29884;47.450;19.124;2022-08-27T07:51:46;6.85;;;3.80;;
44214;SDS011;29884;47.450;19.124;2022-08-27T07:54:12;4.70;;;3.67;;
44214;SDS011;29884;47.450;19.124;2022-08-27T07:56:38;6.35;;;3.00;;
44214;SDS011;29884;47.450;19.124;2022-08-27T07:59:04;5.20;;;3.42;;
44214;SDS011;29884;47.450;19.124;2022-08-27T08:01:30;8.85;;;3.97;;
44214;SDS011;29884;47.450;19.124;2022-08-27T08:03:55;7.10;;;4.53;;
44214;SDS011;29884;47.450;19.124;2022-08-27T08:06:21;4.25;;;2.70;;
44214;SDS011;29884;47.450;19.124;2022-08-27T08:08:47;8.43;;;2.78;;
44214;SDS011;29884;47.450;19.124;2022-08-27T08:11:14;9.85;;;3.33;;
44214;SDS011;29884;47.450;19.124;2022-08-27T08:13:42;7.45;;;2.97;;
44214;SDS011;29884;47.450;19.124;2022-08-27T08:16:09;7.60;;;2.92;;
44214;SDS011;29884;47.450;19.124;2022-08-27T08:18:35;5.32;;;3.03;;
44214;SDS011;29884;47.450;19.124;2022-08-27T08:21:06;9.55;;;3.08;;
44214;SDS011;29884;47.450;19.124;2022-08-27T08:23:36;4.28;;;3.28;;
44214;SDS011;29884;47.450;19.124;2022-08-27T08:26:02;6.63;;;3.10;;
44214;SDS011;29884;47.450;19.124;2022-08-27T08:28:29;6.45;;;2.78;;
44214;SDS011;29884;47.450;19.124;2022-08-27T08:30:55;7.05;;;3.22;;
44214;SDS011;29884;47.450;19.124;2022-08-27T08:33:21;4.68;;;3.40;;
44214;SDS011;29884;47.450;19.124;2022-08-27T08:35:47;4.63;;;2.63;;
44214;SDS011;29884;47.450;19.124;2022-08-27T08:38:13;3.03;;;2.72;;
44214;SDS011;29884;47.450;19.124;2022-08-27T08:40:41;3.17;;;2.78;;
44214;SDS011;29884;47.450;19.124;2022-08-27T08:43:18;7.30;;;3.17;;
44214;SDS011;29884;47.450;19.124;2022-08-27T08:46:10;5.53;;;3.17;;
44214;SDS011;29884;47.450;19.124;2022-08-27T08:48:51;6.07;;;3.20;;
44214;SDS011;29884;47.450;19.124;2022-08-27T08:51:28;9.07;;;3.88;;
44214;SDS011;29884;47.450;19.124;2022-08-27T08:56:29;3.80;;;2.65;;
44214;SDS011;29884;47.450;19.124;2022-08-27T09:01:43;6.43;;;2.95;;
44214;SDS011;29884;47.450;19.124;2022-08-27T09:04:09;5.55;;;3.17;;
44214;SDS011;29884;47.450;19.124;2022-08-27T09:06:44;5.28;;;3.40;;
44214;SDS011;29884;47.450;19.124;2022-08-27T09:11:58;6.18;;;3.83;;
44214;SDS011;29884;47.450;19.124;2022-08-27T09:17:43;4.53;;;3.42;;
44214;SDS011;29884;47.450;19.124;2022-08-27T09:20:10;11.75;;;3.53;;
44214;SDS011;29884;47.450;19.124;2022-08-27T09:25:28;4.30;;;3.92;;
44214;SDS011;29884;47.450;19.124;2022-08-27T09:27:59;9.02;;;3.28;;
44214;SDS011;29884;47.450;19.124;2022-08-27T09:31:09;6.47;;;3.25;;
44214;SDS011;29884;47.450;19.124;2022-08-27T09:33:37;4.22;;;2.47;;
44214;SDS011;29884;47.450;19.124;2022-08-27T09:36:03;41.88;;;7.28;;
44214;SDS011;29884;47.450;19.124;2022-08-27T09:38:33;5.90;;;2.80;;
44214;SDS011;29884;47.450;19.124;2022-08-27T09:41:01;7.85;;;3.00;;
44214;SDS011;29884;47.450;19.124;2022-08-27T09:43:31;34.13;;;5.60;;
44214;SDS011;29884;47.450;19.124;2022-08-27T09:46:16;3.90;;;3.10;;
44214;SDS011;29884;47.450;19.124;2022-08-27T09:48:44;6.85;;;4.13;;
44214;SDS011;29884;47.450;19.124;2022-08-27T09:51:11;4.15;;;3.65;;
44214;SDS011;29884;47.450;19.124;2022-08-27T09:56:21;4.70;;;3.13;;
44214;SDS011;29884;47.450;19.124;2022-08-27T09:58:55;6.45;;;3.08;;
44214;SDS011;29884;47.450;19.124;2022-08-27T10:01:31;3.55;;;3.05;;
44214;SDS011;29884;47.450;19.124;2022-08-27T10:04:39;5.57;;;3.28;;
44214;SDS011;29884;47.450;19.124;2022-08-27T10:07:13;5.47;;;3.22;;
44214;SDS011;29884;47.450;19.124;2022-08-27T10:10:03;6.72;;;3.28;;
44214;SDS011;29884;47.450;19.124;2022-08-27T10:12:46;4.68;;;2.88;;
44214;SDS011;29884;47.450;19.124;2022-08-27T10:15:24;4.88;;;3.17;;
44214;SDS011;29884;47.450;19.124;2022-08-27T10:20:27;4.45;;;3.20;;
44214;SDS011;29884;47.450;19.124;2022-08-27T10:39:15;14.40;;;3.08;;
44214;SDS011;29884;47.450;19.124;2022-08-27T10:41:44;4.18;;;3.08;;
44214;SDS011;29884;47.450;19.124;2022-08-27T10:44:38;5.53;;;3.75;;
44214;SDS011;29884;47.450;19.124;2022-08-27T10:49:52;6.75;;;2.42;;
44214;SDS011;29884;47.450;19.124;2022-08-27T10:52:25;7.35;;;3.35;;
44214;SDS011;29884;47.450;19.124;2022-08-27T10:55:08;9.90;;;3.50;;
44214;SDS011;29884;47.450;19.124;2022-08-27T11:03:39;6.38;;;3.20;;
44214;SDS011;29884;47.450;19.124;2022-08-27T11:11:50;5.72;;;2.90;;
44214;SDS011;29884;47.450;19.124;2022-08-27T11:14:32;6.97;;;3.10;;
44214;SDS011;29884;47.450;19.124;2022-08-27T11:17:07;5.05;;;3.13;;
44214;SDS011;29884;47.450;19.124;2022-08-27T11:19:48;6.88;;;3.10;;
44214;SDS011;29884;47.450;19.124;2022-08-27T11:22:27;7.22;;;3.60;;
44214;SDS011;29884;47.450;19.124;2022-08-27T11:27:49;5.57;;;3.25;;
44214;SDS011;29884;47.450;19.124;2022-08-27T11:35:39;3.53;;;3.28;;
44214;SDS011;29884;47.450;19.124;2022-08-27T11:41:17;4.70;;;3.30;;
44214;SDS011;29884;47.450;19.124;2022-08-27T11:43:53;5.35;;;2.97;;
44214;SDS011;29884;47.450;19.124;2022-08-27T11:46:23;4.30;;;2.67;;
44214;SDS011;29884;47.450;19.124;2022-08-27T11:48:56;7.00;;;2.85;;
44214;SDS011;29884;47.450;19.124;2022-08-27T11:51:33;8.65;;;3.40;;
44214;SDS011;29884;47.450;19.124;2022-08-27T11:54:04;6.13;;;3.17;;
44214;SDS011;29884;47.450;19.124;2022-08-27T11:56:38;7.75;;;3.40;;
44214;SDS011;29884;47.450;19.124;2022-08-27T12:01:53;6.85;;;3.38;;
44214;SDS011;29884;47.450;19.124;2022-08-27T12:04:23;7.65;;;3.13;;
44214;SDS011;29884;47.450;19.124;2022-08-27T12:07:03;3.35;;;2.85;;
44214;SDS011;29884;47.450;19.124;2022-08-27T12:15:19;5.47;;;3.38;;
44214;SDS011;29884;47.450;19.124;2022-08-27T12:23:31;6.60;;;2.78;;
44214;SDS011;29884;47.450;19.124;2022-08-27T12:28:50;4.10;;;3.63;;
44214;SDS011;29884;47.450;19.124;2022-08-27T12:31:40;5.75;;;3.47;;
44214;SDS011;29884;47.450;19.124;2022-08-27T12:34:13;5.75;;;3.55;;
44214;SDS011;29884;47.450;19.124;2022-08-27T12:36:40;4.93;;;3.70;;
44214;SDS011;29884;47.450;19.124;2022-08-27T12:39:13;5.90;;;3.83;;
44214;SDS011;29884;47.450;19.124;2022-08-27T12:41:44;8.27;;;3.83;;
44214;SDS011;29884;47.450;19.124;2022-08-27T12:44:13;6.45;;;3.60;;
44214;SDS011;29884;47.450;19.124;2022-08-27T12:46:51;3.58;;;3.28;;
44214;SDS011;29884;47.450;19.124;2022-08-27T12:49:23;8.70;;;4.22;;
44214;SDS011;29884;47.450;19.124;2022-08-27T12:51:51;7.32;;;3.60;;
44214;SDS011;29884;47.450;19.124;2022-08-27T13:05:16;4.57;;;3.60;;
44214;SDS011;29884;47.450;19.124;2022-08-27T13:07:48;10.47;;;3.47;;
44214;SDS011;29884;47.450;19.124;2022-08-27T13:10:25;4.28;;;3.70;;
44214;SDS011;29884;47.450;19.124;2022-08-27T13:13:26;5.90;;;3.50;;
44214;SDS011;29884;47.450;19.124;2022-08-27T13:15:50;6.85;;;4.05;;
44214;SDS011;29884;47.450;19.124;2022-08-27T13:18:21;3.47;;;3.00;;
44214;SDS011;29884;47.450;19.124;2022-08-27T13:20:48;5.65;;;3.97;;
44214;SDS011;29884;47.450;19.124;2022-08-27T13:23:16;7.30;;;3.60;;
44214;SDS011;29884;47.450;19.124;2022-08-27T13:26:03;5.82;;;3.13;;
44214;SDS011;29884;47.450;19.124;2022-08-27T13:28:32;5.18;;;3.58;;
44214;SDS011;29884;47.450;19.124;2022-08-27T13:30:59;3.88;;;3.03;;
44214;SDS011;29884;47.450;19.124;2022-08-27T13:33:35;7.53;;;3.67;;
44214;SDS011;29884;47.450;19.124;2022-08-27T13:36:03;6.97;;;3.95;;
44214;SDS011;29884;47.450;19.124;2022-08-27T13:38:32;6.30;;;3.47;;
44214;SDS011;29884;47.450;19.124;2022-08-27T13:41:09;6.82;;;4.13;;
44214;SDS011;29884;47.450;19.124;2022-08-27T13:43:44;5.80;;;4.13;;
44214;SDS011;29884;47.450;19.124;2022-08-27T13:46:12;6.65;;;3.60;;
44214;SDS011;29884;47.450;19.124;2022-08-27T13:48:42;4.88;;;3.88;;
44214;SDS011;29884;47.450;19.124;2022-08-27T13:51:10;9.73;;;4.30;;
44214;SDS011;29884;47.450;19.124;2022-08-27T13:53:40;4.85;;;3.67;;
44214;SDS011;29884;47.450;19.124;2022-08-27T13:56:30;4.43;;;4.03;;
44214;SDS011;29884;47.450;19.124;2022-08-27T14:04:35;7.53;;;3.95;;
44214;SDS011;29884;47.450;19.124;2022-08-27T14:07:05;4.10;;;3.28;;
44214;SDS011;29884;47.450;19.124;2022-08-27T14:09:34;8.32;;;3.90;;
44214;SDS011;29884;47.450;19.124;2022-08-27T14:12:07;8.57;;;3.60;;
44214;SDS011;29884;47.450;19.124;2022-08-27T14:14:35;5.30;;;3.90;;
44214;SDS011;29884;47.450;19.124;2022-08-27T14:17:03;5.60;;;3.60;;
44214;SDS011;29884;47.450;19.124;2022-08-27T14:19:32;5.10;;;3.67;;
44214;SDS011;29884;47.450;19.124;2022-08-27T14:21:59;7.25;;;3.35;;
44214;SDS011;29884;47.450;19.124;2022-08-27T14:24:25;6.85;;;4.00;;
44214;SDS011;29884;47.450;19.124;2022-08-27T14:26:54;6.43;;;3.78;;
44214;SDS011;29884;47.450;19.124;2022-08-27T14:29:28;9.02;;;3.58;;
44214;SDS011;29884;47.450;19.124;2022-08-27T14:31:53;5.72;;;3.47;;
44214;SDS011;29884;47.450;19.124;2022-08-27T14:34:19;6.15;;;3.40;;
44214;SDS011;29884;47.450;19.124;2022-08-27T14:36:45;6.20;;;3.80;;
44214;SDS011;29884;47.450;19.124;2022-08-27T14:39:11;3.45;;;3.15;;
44214;SDS011;29884;47.450;19.124;2022-08-27T14:41:37;6.38;;;3.33;;
44214;SDS011;29884;47.450;19.124;2022-08-27T14:44:03;4.53;;;3.83;;
44214;SDS011;29884;47.450;19.124;2022-08-27T14:46:31;7.05;;;3.92;;
44214;SDS011;29884;47.450;19.124;2022-08-27T14:49:00;5.75;;;4.13;;
44214;SDS011;29884;47.450;19.124;2022-08-27T14:51:30;7.43;;;3.60;;
44214;SDS011;29884;47.450;19.124;2022-08-27T14:53:56;5.95;;;3.83;;
44214;SDS011;29884;47.450;19.124;2022-08-27T14:56:23;8.52;;;3.70;;
44214;SDS011;29884;47.450;19.124;2022-08-27T14:58:50;4.53;;;3.30;;
44214;SDS011;29884;47.450;19.124;2022-08-27T15:01:27;5.13;;;3.78;;
44214;SDS011;29884;47.450;19.124;2022-08-27T15:03:54;6.15;;;4.05;;
44214;SDS011;29884;47.450;19.124;2022-08-27T15:06:20;7.47;;;3.78;;
44214;SDS011;29884;47.450;19.124;2022-08-27T15:08:48;8.35;;;4.25;;
44214;SDS011;29884;47.450;19.124;2022-08-27T15:11:15;6.85;;;3.88;;
44214;SDS011;29884;47.450;19.124;2022-08-27T15:13:44;7.82;;;3.55;;
44214;SDS011;29884;47.450;19.124;2022-08-27T15:16:14;9.05;;;3.70;;
44214;SDS011;29884;47.450;19.124;2022-08-27T15:18:41;7.38;;;3.75;;
44214;SDS011;29884;47.450;19.124;2022-08-27T15:21:07;7.85;;;3.63;;
44214;SDS011;29884;47.450;19.124;2022-08-27T15:23:32;5.88;;;4.05;;
44214;SDS011;29884;47.450;19.124;2022-08-27T15:25:58;6.07;;;3.95;;
44214;SDS011;29884;47.450;19.124;2022-08-27T15:28:24;4.82;;;3.63;;
44214;SDS011;29884;47.450;19.124;2022-08-27T15:30:49;6.95;;;3.55;;
44214;SDS011;29884;47.450;19.124;2022-08-27T15:33:15;7.65;;;3.78;;
44214;SDS011;29884;47.450;19.124;2022-08-27T15:35:41;8.82;;;3.90;;
44214;SDS011;29884;47.450;19.124;2022-08-27T15:38:07;4.20;;;3.80;;
44214;SDS011;29884;47.450;19.124;2022-08-27T15:40:33;7.13;;;4.03;;
44214;SDS011;29884;47.450;19.124;2022-08-27T15:43:01;5.18;;;3.55;;
44214;SDS011;29884;47.450;19.124;2022-08-27T15:45:29;6.45;;;3.33;;
44214;SDS011;29884;47.450;19.124;2022-08-27T15:47:56;4.00;;;3.47;;
44214;SDS011;29884;47.450;19.124;2022-08-27T15:50:23;7.85;;;3.65;;
44214;SDS011;29884;47.450;19.124;2022-08-27T15:52:50;4.65;;;3.83;;
44214;SDS011;29884;47.450;19.124;2022-08-27T15:55:23;8.27;;;4.30;;
44214;SDS011;29884;47.450;19.124;2022-08-27T15:57:50;5.53;;;4.65;;
44214;SDS011;29884;47.450;19.124;2022-08-27T16:00:16;7.40;;;3.92;;
44214;SDS011;29884;47.450;19.124;2022-08-27T16:02:43;6.80;;;4.05;;
44214;SDS011;29884;47.450;19.124;2022-08-27T16:05:10;7.05;;;3.78;;
44214;SDS011;29884;47.450;19.124;2022-08-27T16:07:37;9.50;;;4.25;;
44214;SDS011;29884;47.450;19.124;2022-08-27T16:10:03;7.75;;;3.75;;
44214;SDS011;29884;47.450;19.124;2022-08-27T16:12:31;9.48;;;4.25;;
44214;SDS011;29884;47.450;19.124;2022-08-27T16:14:56;5.68;;;3.70;;
44214;SDS011;29884;47.450;19.124;2022-08-27T16:17:22;8.75;;;4.30;;
44214;SDS011;29884;47.450;19.124;2022-08-27T16:19:50;9.30;;;4.22;;